Back to Top

Language: 

My Weather Underground Personal Weather Station Historical Data with Graphs...

Delerius Weather Station Historical Data
Daily Summary for March 2, 2017 Units:  Metric    English   Both
« Previous Day
Next Day »
Daily Weekly Monthly Yearly Custom
  High: Low: Average:
Temperature: 9.2 °C 2.2 °C 5.5 °C
Dew Point: 4.9 °C -0.3 °C 2.2 °C
Humidity: 95 % 62 % 80 %
Wind Speed: 30.6 km/h 0 km/h 15.8 km/h
Wind Gust: 43.5 km/h - -
Wind:- - West
Pressure: 1008.4 hPa 993.5 hPa -
Precipitation: 2.29 mm    
Historical Graphs
 
 
Tabular Data for March 2, 2017
Time Temperature Dew Point Pressure Wind Wind Speed Wind Gust Humidity Rainfall Rate (Hourly) solar Conditions
00:00 3.7 °C 2.4 °C 993.5 hPa West 14.5 km/h 14.5 km/h 91 % 0 mm 0 W/m2
00:05 3.7 °C 2.2 °C 993.5 hPa WNW 14.5 km/h 14.5 km/h 90 % 0 mm 0 W/m2
00:15 3.6 °C 2.1 °C 993.8 hPa West 9.7 km/h 11.3 km/h 90 % 0 mm 0 W/m2
00:20 3.6 °C 2.1 °C 993.8 hPa West 9.7 km/h 14.5 km/h 90 % 0 mm 0 W/m2
00:25 3.6 °C 2.1 °C 993.8 hPa WNW 12.9 km/h 14.5 km/h 90 % 0 mm 0 W/m2
00:30 3.5 °C 2 °C 993.8 hPa WNW 14.5 km/h 17.7 km/h 90 % 0 mm 0 W/m2
00:35 3.4 °C 1.9 °C 993.8 hPa WSW 12.9 km/h 17.7 km/h 90 % 0 mm 0 W/m2
00:40 3.4 °C 1.9 °C 994.1 hPa West 16.1 km/h 19.3 km/h 90 % 0 mm 0 W/m2
00:50 3.4 °C 1.9 °C 994.1 hPa West 14.5 km/h 19.3 km/h 90 % 0 mm 0 W/m2
00:55 3.3 °C 1.8 °C 994.1 hPa SW 14.5 km/h 19.3 km/h 90 % 0 mm 0 W/m2
01:00 3.2 °C 1.8 °C 994.1 hPa SW 16.1 km/h 16.1 km/h 91 % 0 mm 0 W/m2
01:10 3.1 °C 1.7 °C 994.1 hPa SW 12.9 km/h 25.7 km/h 91 % 0 mm 0 W/m2
01:15 3 °C 1.7 °C 994.1 hPa SW 14.5 km/h 25.7 km/h 91 % 0 mm 0 W/m2
01:25 2.8 °C 1.4 °C 994.1 hPa WSW 17.7 km/h 30.6 km/h 91 % 1.52 mm 0 W/m2
01:30 2.7 °C 1.5 °C 994.1 hPa WSW 19.3 km/h 25.7 km/h 92 % 1.52 mm 0 W/m2
01:35 2.6 °C 1.4 °C 994.1 hPa WSW 17.7 km/h 25.7 km/h 92 % 1.78 mm 0 W/m2
01:40 2.5 °C 1.3 °C 994.1 hPa West 17.7 km/h 25.7 km/h 92 % 1.78 mm 0 W/m2
01:45 2.4 °C 1.4 °C 994.1 hPa SW 17.7 km/h 25.7 km/h 93 % 3.56 mm 0 W/m2
01:55 2.3 °C 1.3 °C 994.1 hPa WSW 17.7 km/h 25.7 km/h 93 % 2.54 mm 0 W/m2
02:00 2.2 °C 1.2 °C 994.1 hPa WSW 19.3 km/h 19.3 km/h 93 % 1.78 mm 0 W/m2
02:05 2.2 °C 1.2 °C 994.5 hPa West 19.3 km/h 25.7 km/h 93 % 1.52 mm 0 W/m2
02:10 2.3 °C 1.4 °C 994.5 hPa West 17.7 km/h 17.7 km/h 94 % 1.52 mm 0 W/m2
02:15 2.3 °C 1.4 °C 994.5 hPa West 17.7 km/h 19.3 km/h 94 % 1.27 mm 0 W/m2
02:20 2.4 °C 1.5 °C 994.8 hPa WNW 17.7 km/h 25.7 km/h 94 % 2.29 mm 0 W/m2
02:30 2.7 °C 1.8 °C 995.1 hPa West 19.3 km/h 19.3 km/h 94 % 1.52 mm 0 W/m2
02:40 2.8 °C 1.9 °C 995.1 hPa West 17.7 km/h 25.7 km/h 94 % 1.02 mm 0 W/m2
02:45 2.8 °C 1.9 °C 995.5 hPa West 17.7 km/h 25.7 km/h 94 % 1.02 mm 0 W/m2
02:50 2.7 °C 1.8 °C 995.5 hPa West 16.1 km/h 25.7 km/h 94 % 1.02 mm 0 W/m2
02:55 2.7 °C 1.8 °C 995.5 hPa WNW 14.5 km/h 25.7 km/h 94 % 0 mm 0 W/m2
03:05 2.7 °C 1.8 °C 995.5 hPa West 12.9 km/h 25.7 km/h 94 % 0 mm 0 W/m2
03:10 2.7 °C 1.8 °C 995.8 hPa West 11.3 km/h 11.3 km/h 94 % 0 mm 0 W/m2
03:15 2.7 °C 1.8 °C 995.8 hPa West 6.4 km/h 25.7 km/h 94 % 0 mm 0 W/m2
03:20 2.7 °C 1.8 °C 995.8 hPa West 6.4 km/h 25.7 km/h 94 % 0 mm 0 W/m2
03:30 2.9 °C 2.2 °C 995.5 hPa West 9.7 km/h 25.7 km/h 95 % 0 mm 0 W/m2
03:35 2.9 °C 2.1 °C 995.5 hPa WNW 9.7 km/h 25.7 km/h 94 % 0 mm 0 W/m2
03:45 3 °C 2.1 °C 995.8 hPa West 11.3 km/h 12.9 km/h 94 % 0 mm 0 W/m2
03:50 3.1 °C 2.2 °C 995.8 hPa WNW 11.3 km/h 11.3 km/h 94 % 0 mm 0 W/m2
03:55 3.1 °C 2.2 °C 995.8 hPa West 11.3 km/h 12.9 km/h 94 % 0 mm 0 W/m2
04:00 3.1 °C 2.2 °C 995.8 hPa West 14.5 km/h 14.5 km/h 94 % 0 mm 0 W/m2
04:10 3.2 °C 2.3 °C 995.8 hPa WSW 16.1 km/h 29 km/h 94 % 0 mm 0 W/m2
04:15 3.2 °C 2.3 °C 995.8 hPa West 16.1 km/h 29 km/h 94 % 0 mm 0 W/m2
04:20 3.2 °C 2.3 °C 995.8 hPa West 16.1 km/h 25.7 km/h 94 % 0 mm 0 W/m2
04:25 3.2 °C 2.3 °C 996.2 hPa West 17.7 km/h 25.7 km/h 94 % 0 mm 0 W/m2
04:30 3.3 °C 2.4 °C 996.2 hPa WSW 17.7 km/h 17.7 km/h 94 % 0 mm 0 W/m2
04:35 3.4 °C 2.4 °C 996.2 hPa West 16.1 km/h 20.9 km/h 93 % 0 mm 0 W/m2
04:45 3.6 °C 2.4 °C 996.2 hPa WSW 19.3 km/h 19.3 km/h 92 % 0 mm 0 W/m2
04:50 3.6 °C 2.4 °C 996.5 hPa West 19.3 km/h 25.7 km/h 92 % 0 mm 0 W/m2
04:55 3.6 °C 2.4 °C 996.5 hPa West 19.3 km/h 25.7 km/h 92 % 0 mm 0 W/m2
05:05 3.7 °C 2.3 °C 996.5 hPa WSW 19.3 km/h 25.7 km/h 91 % 0 mm 0 W/m2
05:10 3.7 °C 2.4 °C 996.5 hPa WNW 17.7 km/h 25.7 km/h 91 % 0 mm 0 W/m2
05:20 3.8 °C 2.4 °C 996.8 hPa WSW 17.7 km/h 17.7 km/h 91 % 0 mm 0 W/m2
05:25 3.8 °C 2.3 °C 996.8 hPa West 17.7 km/h 25.7 km/h 90 % 0 mm 0 W/m2
05:30 3.9 °C 2.4 °C 996.8 hPa West 17.7 km/h 25.7 km/h 90 % 0 mm 0 W/m2
05:35 3.9 °C 2.4 °C 997.2 hPa WSW 19.3 km/h 25.7 km/h 90 % 0 mm 0 W/m2
05:40 3.9 °C 2.4 °C 997.2 hPa WSW 20.9 km/h 20.9 km/h 90 % 0 mm 0 W/m2
05:50 3.9 °C 2.4 °C 997.2 hPa SW 19.3 km/h 19.3 km/h 90 % 0 mm 0 W/m2
05:55 3.9 °C 2.4 °C 997.2 hPa WSW 17.7 km/h 20.9 km/h 90 % 0 mm 0 W/m2
06:00 3.9 °C 2.4 °C 997.5 hPa West 17.7 km/h 17.7 km/h 90 % 0 mm 0 W/m2
06:05 3.9 °C 2.4 °C 997.5 hPa WNW 16.1 km/h 25.7 km/h 90 % 0 mm 0 W/m2
06:10 3.8 °C 2.5 °C 997.9 hPa West 17.7 km/h 25.7 km/h 91 % 0 mm 0 W/m2
06:15 3.8 °C 2.5 °C 997.9 hPa NW 16.1 km/h 25.7 km/h 91 % 0 mm 0 W/m2
06:25 3.7 °C 2.4 °C 998.2 hPa SW 14.5 km/h 25.7 km/h 91 % 0 mm 0 W/m2
06:30 3.6 °C 2.3 °C 998.2 hPa WSW 12.9 km/h 25.7 km/h 91 % 0 mm 0 W/m2
06:35 3.6 °C 2.3 °C 998.2 hPa West 12.9 km/h 25.7 km/h 91 % 0 mm 0 W/m2
06:45 3.5 °C 2.2 °C 998.2 hPa West 11.3 km/h 25.7 km/h 91 % 0 mm 0 W/m2
06:50 3.4 °C 2.1 °C 998.5 hPa WNW 11.3 km/h 25.7 km/h 91 % 0 mm 0 W/m2
07:00 3.4 °C 2.1 °C 998.5 hPa West 12.9 km/h 12.9 km/h 91 % 0 mm 11 W/m2
07:05 3.4 °C 2.2 °C 998.9 hPa NW 14.5 km/h 14.5 km/h 92 % 0 mm 14 W/m2
07:10 3.4 °C 2.3 °C 998.9 hPa West 17.7 km/h 17.7 km/h 92 % 0 mm 25 W/m2
07:15 3.5 °C 2.3 °C 998.9 hPa WNW 19.3 km/h 19.3 km/h 92 % 0 mm 21 W/m2
07:20 3.5 °C 2.3 °C 999.2 hPa West 19.3 km/h 25.7 km/h 92 % 0 mm 39 W/m2
07:30 3.6 °C 2.4 °C 999.5 hPa West 20.9 km/h 20.9 km/h 92 % 0 mm 28 W/m2
07:35 3.6 °C 2.4 °C 999.5 hPa WNW 22.5 km/h 22.5 km/h 92 % 0 mm 28 W/m2
07:40 3.6 °C 2.4 °C 999.9 hPa WNW 22.5 km/h 22.5 km/h 92 % 0 mm 28 W/m2
07:45 3.6 °C 2.3 °C 1000.2 hPa West 22.5 km/h 25.7 km/h 91 % 0 mm 32 W/m2
07:50 3.6 °C 2.4 °C 1000.2 hPa WNW 19.3 km/h 25.7 km/h 92 % 0 mm 39 W/m2
07:55 3.7 °C 2.6 °C 1000.6 hPa WNW 17.7 km/h 25.7 km/h 92 % 0 mm 42 W/m2
08:05 4.1 °C 3 °C 1000.6 hPa West 19.3 km/h 25.7 km/h 93 % 0 mm 183 W/m2
08:15 4.4 °C 3.4 °C 1001.2 hPa WNW 16.1 km/h 25.7 km/h 93 % 0 mm 93 W/m2
08:20 4.6 °C 3.4 °C 1001.2 hPa WNW 14.5 km/h 32.2 km/h 92 % 0 mm 84 W/m2
08:25 4.7 °C 3.5 °C 1001.2 hPa West 19.3 km/h 32.2 km/h 92 % 0 mm 98 W/m2
08:30 4.8 °C 3.6 °C 1001.6 hPa West 19.3 km/h 19.3 km/h 92 % 0 mm 56 W/m2
08:40 4.8 °C 3.4 °C 1001.9 hPa West 17.7 km/h 17.7 km/h 91 % 0 mm 44 W/m2
08:45 4.7 °C 3.2 °C 1002.3 hPa West 19.3 km/h 19.3 km/h 90 % 0 mm 51 W/m2
08:50 4.7 °C 3.2 °C 1002.3 hPa WNW 20.9 km/h 20.9 km/h 90 % 0 mm 100 W/m2
08:55 4.8 °C 3.3 °C 1002.6 hPa West 22.5 km/h 22.5 km/h 90 % 0 mm 100 W/m2
09:00 4.8 °C 3.1 °C 1002.6 hPa West 24.1 km/h 24.1 km/h 89 % 0 mm 91 W/m2
09:10 5.1 °C 3.4 °C 1002.9 hPa WNW 20.9 km/h 20.9 km/h 89 % 0 mm 311 W/m2
09:15 5.4 °C 3.6 °C 1002.9 hPa WNW 19.3 km/h 25.7 km/h 88 % 0 mm 327 W/m2
09:20 5.8 °C 3.8 °C 1003.3 hPa WNW 19.3 km/h 19.3 km/h 87 % 0 mm 332 W/m2
09:25 6 °C 3.8 °C 1003.3 hPa West 20.9 km/h 22.5 km/h 86 % 0 mm 336 W/m2
09:35 6.4 °C 4.1 °C 1003.6 hPa NW 17.7 km/h 25.7 km/h 85 % 0 mm 366 W/m2
09:40 6.6 °C 4.1 °C 1003.9 hPa WNW 20.9 km/h 20.9 km/h 84 % 0 mm 438 W/m2
09:50 6.8 °C 4.2 °C 1004.3 hPa WNW 19.3 km/h 19.3 km/h 83 % 0 mm 408 W/m2
09:55 7 °C 4.1 °C 1004.3 hPa West 19.3 km/h 24.1 km/h 82 % 0 mm 396 W/m2
10:00 7.1 °C 4.2 °C 1004.3 hPa West 17.7 km/h 17.7 km/h 82 % 0 mm 146 W/m2
10:05 7 °C 3.9 °C 1004.3 hPa WNW 17.7 km/h 22.5 km/h 81 % 0 mm 83 W/m2
10:10 6.7 °C 4.1 °C 1004.6 hPa WNW 17.7 km/h 29 km/h 83 % 0 mm 77 W/m2
10:20 5.8 °C 3.6 °C 1004.6 hPa NW 16.1 km/h 16.1 km/h 86 % 0 mm 100 W/m2
10:25 5.4 °C 3.6 °C 1005 hPa NW 12.9 km/h 25.7 km/h 88 % 0 mm 88 W/m2
10:30 5.3 °C 3.7 °C 1005 hPa WNW 11.3 km/h 11.3 km/h 89 % 0 mm 153 W/m2
10:35 5.5 °C 4 °C 1005 hPa West 11.3 km/h 25.7 km/h 90 % 0 mm 86 W/m2
10:40 5.6 °C 4.1 °C 1005 hPa West 11.3 km/h 25.7 km/h 90 % 0 mm 561 W/m2
10:50 6.4 °C 4.9 °C 1005 hPa WNW 8 km/h 8 km/h 90 % 0 mm 506 W/m2
10:55 6.8 °C 4.9 °C 1005 hPa NW 9.7 km/h 12.9 km/h 88 % 0 mm 599 W/m2
11:00 7.1 °C 4.8 °C 1005 hPa NW 14.5 km/h 14.5 km/h 85 % 0 mm 181 W/m2
11:05 7.4 °C 4.8 °C 1005 hPa NNW 16.1 km/h 16.1 km/h 84 % 0 mm 499 W/m2
11:15 7.8 °C 4.2 °C 1005 hPa West 16.1 km/h 25.7 km/h 78 % 0 mm 211 W/m2
11:25 7.5 °C 3.7 °C 1005.6 hPa NW 20.9 km/h 25.7 km/h 77 % 0 mm 130 W/m2
11:30 7.4 °C 3.6 °C 1005.6 hPa NW 20.9 km/h 20.9 km/h 77 % 0 mm 100 W/m2
11:35 7.5 °C 4.1 °C 1005.6 hPa West 20.9 km/h 25.7 km/h 79 % 0 mm 557 W/m2
11:40 7.7 °C 4.1 °C 1005.6 hPa WNW 19.3 km/h 25.7 km/h 78 % 0 mm 557 W/m2
11:45 7.9 °C 4.1 °C 1005.6 hPa West 20.9 km/h 25.7 km/h 77 % 0 mm 332 W/m2
11:50 8 °C 4 °C 1005.6 hPa West 20.9 km/h 20.9 km/h 76 % 0 mm 431 W/m2
12:00 8.1 °C 3.9 °C 1006 hPa WNW 29 km/h 29 km/h 75 % 0 mm 281 W/m2
12:05 8.2 °C 3.8 °C 1006 hPa West 29 km/h 29 km/h 74 % 0 mm 580 W/m2
12:10 8.3 °C 3.9 °C 1006 hPa West 30.6 km/h 35.4 km/h 74 % 0 mm 563 W/m2
12:15 8.4 °C 4.3 °C 1006 hPa West 27.4 km/h 35.4 km/h 75 % 0 mm 541 W/m2
12:20 8.6 °C 4 °C 1006 hPa West 24.1 km/h 32.2 km/h 73 % 0 mm 543 W/m2
12:30 8.3 °C 3.9 °C 1006 hPa WNW 27.4 km/h 27.4 km/h 74 % 0 mm 195 W/m2
12:35 8.2 °C 3.8 °C 1006 hPa WSW 24.1 km/h 27.4 km/h 74 % 0 mm 638 W/m2
12:45 8.4 °C 4 °C 1006.3 hPa WSW 25.7 km/h 32.2 km/h 74 % 0 mm 538 W/m2
12:50 8.4 °C 3.4 °C 1006 hPa WNW 29 km/h 35.4 km/h 71 % 0 mm 487 W/m2
12:55 8.6 °C 3.6 °C 1006 hPa West 29 km/h 35.4 km/h 71 % 0 mm 540 W/m2
13:00 8.7 °C 3.5 °C 1006.3 hPa West 27.4 km/h 27.4 km/h 70 % 0 mm 536 W/m2
13:05 8.7 °C 3.3 °C 1006 hPa WNW 27.4 km/h 29 km/h 69 % 0 mm 533 W/m2
13:10 8.8 °C 3.4 °C 1006 hPa WNW 25.7 km/h 25.7 km/h 69 % 0 mm 529 W/m2
13:15 8.9 °C 3.5 °C 1006 hPa WSW 24.1 km/h 25.7 km/h 69 % 0 mm 531 W/m2
13:20 8.9 °C 3.8 °C 1006.3 hPa West 25.7 km/h 43.5 km/h 70 % 0 mm 540 W/m2
13:25 8.4 °C 3.7 °C 1006 hPa West 30.6 km/h 43.5 km/h 72 % 0 mm 461 W/m2
13:30 8.3 °C 3.9 °C 1006 hPa WNW 29 km/h 29 km/h 74 % 0 mm 482 W/m2
13:40 8.6 °C 4.4 °C 1006 hPa West 20.9 km/h 20.9 km/h 75 % 0 mm 559 W/m2
13:45 8.6 °C 4.4 °C 1006 hPa WNW 27.4 km/h 35.4 km/h 75 % 0 mm 485 W/m2
13:50 8.6 °C 4.4 °C 1006 hPa WNW 29 km/h 35.4 km/h 75 % 0 mm 499 W/m2
14:00 8.7 °C 4.2 °C 1006 hPa West 29 km/h 33.8 km/h 73 % 0 mm 473 W/m2
14:05 8.8 °C 3.8 °C 1006 hPa West 29 km/h 33.8 km/h 71 % 0 mm 462 W/m2
14:15 9 °C 4 °C 1006 hPa West 25.7 km/h 29 km/h 71 % 0 mm 441 W/m2
14:20 8.9 °C 3.6 °C 1006 hPa WNW 27.4 km/h 27.4 km/h 69 % 0 mm 448 W/m2
14:25 8.9 °C 3.6 °C 1006.3 hPa WNW 27.4 km/h 33.8 km/h 69 % 0 mm 432 W/m2
14:30 9 °C 3.2 °C 1006.3 hPa WNW 25.7 km/h 35.4 km/h 67 % 0 mm 418 W/m2
14:35 9.1 °C 3.3 °C 1006.3 hPa WNW 25.7 km/h 35.4 km/h 67 % 0 mm 411 W/m2
14:45 9.1 °C 3.1 °C 1006.3 hPa West 27.4 km/h 40.2 km/h 66 % 0 mm 352 W/m2
14:50 9.2 °C 2.9 °C 1006.7 hPa West 20.9 km/h 20.9 km/h 65 % 0 mm 364 W/m2
14:55 9.2 °C 2.9 °C 1006.7 hPa West 17.7 km/h 29 km/h 65 % 0 mm 294 W/m2
15:00 9.2 °C 2.9 °C 1006.7 hPa WNW 17.7 km/h 25.7 km/h 65 % 0 mm 308 W/m2
15:05 9.1 °C 2.4 °C 1006.7 hPa West 19.3 km/h 25.7 km/h 63 % 0 mm 353 W/m2
15:10 9.1 °C 2.7 °C 1007 hPa West 19.3 km/h 25.7 km/h 64 % 0 mm 330 W/m2
15:20 9 °C 2.6 °C 1007 hPa West 19.3 km/h 25.7 km/h 64 % 0 mm 250 W/m2
15:25 8.9 °C 2.7 °C 1007 hPa SW 20.9 km/h 25.7 km/h 65 % 0 mm 269 W/m2
15:35 8.8 °C 2.4 °C 1007.3 hPa WNW 16.1 km/h 25.7 km/h 64 % 0 mm 230 W/m2
15:40 8.9 °C 2.4 °C 1007.3 hPa WNW 12.9 km/h 12.9 km/h 64 % 0 mm 244 W/m2
15:45 8.8 °C 2.2 °C 1007.3 hPa WSW 12.9 km/h 25.7 km/h 63 % 0 mm 206 W/m2
15:55 8.4 °C 1.9 °C 1007.3 hPa WSW 14.5 km/h 25.7 km/h 64 % 0 mm 176 W/m2
16:00 8.3 °C 2.1 °C 1007.3 hPa West 11.3 km/h 11.3 km/h 65 % 0 mm 151 W/m2
16:05 8.2 °C 2 °C 1007.3 hPa SW 9.7 km/h 25.7 km/h 65 % 0 mm 79 W/m2
16:10 8.1 °C 2.1 °C 1007.3 hPa WSW 8 km/h 25.7 km/h 66 % 0 mm 46 W/m2
16:15 7.9 °C 2 °C 1007.3 hPa West 9.7 km/h 25.7 km/h 66 % 0 mm 44 W/m2
16:25 7.7 °C 2 °C 1007.3 hPa SW 12.9 km/h 17.7 km/h 67 % 0 mm 63 W/m2
16:30 7.6 °C 1.9 °C 1007.3 hPa WSW 14.5 km/h 14.5 km/h 67 % 0 mm 62 W/m2
16:35 7.6 °C 1.8 °C 1007.3 hPa SW 16.1 km/h 16.1 km/h 67 % 0 mm 65 W/m2
16:40 7.5 °C 1.8 °C 1007.3 hPa SW 16.1 km/h 25.7 km/h 67 % 0 mm 70 W/m2
16:45 7.4 °C 1.5 °C 1007.3 hPa SW 17.7 km/h 25.7 km/h 66 % 0 mm 70 W/m2
16:50 7.4 °C 1.3 °C 1007.3 hPa SW 17.7 km/h 17.7 km/h 65 % 0 mm 46 W/m2
17:00 7.3 °C 0.9 °C 1007.3 hPa WSW 14.5 km/h 25.7 km/h 64 % 0 mm 19 W/m2
17:10 7.1 °C 0.3 °C 1007.3 hPa West 20.9 km/h 25.7 km/h 62 % 0 mm 14 W/m2
17:15 7 °C 0.4 °C 1007.7 hPa West 19.3 km/h 25.7 km/h 63 % 0 mm 12 W/m2
17:20 6.9 °C 0.3 °C 1007.7 hPa WSW 16.1 km/h 25.7 km/h 63 % 0 mm 11 W/m2
17:25 6.8 °C 0.3 °C 1007.7 hPa West 17.7 km/h 32.2 km/h 63 % 0 mm 9 W/m2
17:35 6.7 °C 0.4 °C 1007.7 hPa WSW 17.7 km/h 25.7 km/h 64 % 0 mm 7 W/m2
17:40 6.6 °C 0.3 °C 1008 hPa West 17.7 km/h 17.7 km/h 64 % 0 mm 5 W/m2
17:45 6.6 °C 0.4 °C 1007.7 hPa WSW 19.3 km/h 19.3 km/h 65 % 0 mm 0 W/m2
17:50 6.4 °C 0.6 °C 1007.7 hPa West 17.7 km/h 17.7 km/h 66 % 0 mm 0 W/m2
17:55 6.3 °C 0.4 °C 1007.7 hPa WSW 14.5 km/h 25.7 km/h 66 % 0 mm 0 W/m2
18:00 6.3 °C 0.7 °C 1007.7 hPa WSW 14.5 km/h 14.5 km/h 67 % 0 mm 0 W/m2
18:05 6.2 °C 0.6 °C 1007.7 hPa WSW 12.9 km/h 25.7 km/h 67 % 0 mm 0 W/m2
18:10 6.2 °C 0.7 °C 1008 hPa West 11.3 km/h 25.7 km/h 68 % 0 mm 0 W/m2
18:15 6.2 °C 0.7 °C 1008 hPa WSW 11.3 km/h 25.7 km/h 68 % 0 mm 0 W/m2
18:20 6.1 °C 0.7 °C 1008 hPa WSW 11.3 km/h 11.3 km/h 68 % 0 mm 0 W/m2
18:25 6.1 °C 0.8 °C 1008.4 hPa SW 9.7 km/h 20.9 km/h 69 % 0 mm 0 W/m2
18:30 6.1 °C 0.6 °C 1008.4 hPa SW 12.9 km/h 12.9 km/h 68 % 0 mm 0 W/m2
18:40 6.1 °C 0.6 °C 1008 hPa WSW 12.9 km/h 25.7 km/h 68 % 0 mm 0 W/m2
18:45 6 °C 0.3 °C 1008 hPa WSW 12.9 km/h 25.7 km/h 67 % 0 mm 0 W/m2
18:55 5.9 °C 0.2 °C 1008 hPa SW 12.9 km/h 25.7 km/h 67 % 0 mm 0 W/m2
19:00 5.9 °C 0.2 °C 1008 hPa WSW 12.9 km/h 12.9 km/h 67 % 0 mm 0 W/m2
19:05 5.9 °C 0.2 °C 1008 hPa WSW 12.9 km/h 25.7 km/h 67 % 0 mm 0 W/m2
19:15 5.8 °C 0.1 °C 1008 hPa SW 12.9 km/h 25.7 km/h 67 % 0 mm 0 W/m2
19:20 5.7 °C 0.1 °C 1007.7 hPa SW 11.3 km/h 11.3 km/h 67 % 0 mm 0 W/m2
19:25 5.7 °C 0.1 °C 1007.7 hPa SW 9.7 km/h 25.7 km/h 67 % 0 mm 0 W/m2
19:30 5.7 °C -0.2 °C 1007.7 hPa SW 9.7 km/h 9.7 km/h 66 % 0 mm 0 W/m2
19:35 5.6 °C -0.2 °C 1007.7 hPa SSW 8 km/h 25.7 km/h 66 % 0 mm 0 W/m2
19:45 5.4 °C -0.3 °C 1007.7 hPa SSW 3.2 km/h 25.7 km/h 67 % 0 mm 0 W/m2
19:50 5.3 °C -0.3 °C 1007.7 hPa SSW 1.6 km/h 25.7 km/h 67 % 0 mm 0 W/m2
19:55 5.2 °C -0.3 °C 1007.7 hPa Calm   25.7 km/h 68 % 0 mm 0 W/m2
20:00 5 °C -0.2 °C 1007.7 hPa Calm   25.7 km/h 69 % 0 mm 0 W/m2
20:10 4.7 °C -0.2 °C 1007.7 hPa SSW 1.6 km/h 1.6 km/h 71 % 0 mm 0 W/m2
20:20 4.4 °C -0.2 °C 1007.3 hPa Calm   25.7 km/h 72 % 0 mm 0 W/m2
20:25 4.3 °C -0.3 °C 1007.3 hPa Calm   25.7 km/h 72 % 0 mm 0 W/m2
20:30 4.1 °C -0.3 °C 1007.3 hPa Calm   25.7 km/h 73 % 0 mm 0 W/m2
20:35 4.1 °C -0.2 °C 1007.3 hPa SSE 1.6 km/h 25.7 km/h 74 % 0 mm 0 W/m2
20:40 4 °C -0.2 °C 1007.3 hPa SSE 1.6 km/h 1.6 km/h 74 % 0 mm 0 W/m2
20:45 3.9 °C -0.1 °C 1007.3 hPa Calm   25.7 km/h 75 % 0 mm 0 W/m2
20:55 3.9 °C -0.2 °C 1007.3 hPa Calm   25.7 km/h 75 % 0 mm 0 W/m2
21:05 4 °C -0.1 °C 1007 hPa SSW 3.2 km/h 25.7 km/h 75 % 0 mm 0 W/m2
21:10 4.2 °C 0.1 °C 1007 hPa SSW 4.8 km/h 25.7 km/h 75 % 0 mm 0 W/m2
21:15 4.3 °C 0.1 °C 1007 hPa SSW 4.8 km/h 25.7 km/h 74 % 0 mm 0 W/m2
21:20 4.4 °C 0.2 °C 1007 hPa South 6.4 km/h 25.7 km/h 74 % 0 mm 0 W/m2
21:30 4.8 °C 0.3 °C 1007 hPa SSW 6.4 km/h 6.4 km/h 73 % 0 mm 0 W/m2
21:35 4.8 °C 0.2 °C 1007 hPa SW 6.4 km/h 25.7 km/h 72 % 0 mm 0 W/m2
21:40 4.9 °C 0.3 °C 1007 hPa South 8 km/h 8 km/h 72 % 0 mm 0 W/m2
21:45 4.9 °C 0.3 °C 1007 hPa SSW 6.4 km/h 25.7 km/h 72 % 0 mm 0 W/m2
21:50 4.9 °C 0.3 °C 1007 hPa SSW 6.4 km/h 25.7 km/h 72 % 0 mm 0 W/m2
22:00 5 °C 0.4 °C 1006.7 hPa SSW 8 km/h 8 km/h 72 % 0 mm 0 W/m2
22:05 4.9 °C 0.3 °C 1006.7 hPa South 8 km/h 25.7 km/h 72 % 0 mm 0 W/m2
22:10 5.1 °C 0.4 °C 1006.7 hPa SSW 9.7 km/h 9.7 km/h 72 % 0 mm 0 W/m2
22:15 5.1 °C 0.7 °C 1006.7 hPa SW 9.7 km/h 14.5 km/h 73 % 0 mm 0 W/m2
22:20 5.2 °C 0.8 °C 1006.7 hPa SW 11.3 km/h 11.3 km/h 73 % 0 mm 0 W/m2
22:30 5.4 °C 1.2 °C 1006.7 hPa South 14.5 km/h 14.5 km/h 74 % 0 mm 0 W/m2
22:35 5.6 °C 1.5 °C 1006.3 hPa SSW 14.5 km/h 25.7 km/h 75 % 0 mm 0 W/m2
22:45 5.8 °C 1.7 °C 1006 hPa SW 12.9 km/h 25.7 km/h 75 % 0 mm 0 W/m2
22:50 5.8 °C 1.7 °C 1006 hPa SW 12.9 km/h 25.7 km/h 75 % 0 mm 0 W/m2
22:55 5.8 °C 1.9 °C 1006 hPa SW 12.9 km/h 25.7 km/h 76 % 0 mm 0 W/m2
23:00 5.7 °C 1.8 °C 1006 hPa SW 12.9 km/h 25.7 km/h 76 % 0 mm 0 W/m2
23:10 5.6 °C 1.9 °C 1005.6 hPa SW 12.9 km/h 25.7 km/h 77 % 0 mm 0 W/m2
23:15 5.7 °C 2.2 °C 1005.6 hPa SW 12.9 km/h 25.7 km/h 78 % 0 mm 0 W/m2
23:20 5.7 °C 2.1 °C 1006 hPa SSW 11.3 km/h 25.7 km/h 78 % 0 mm 0 W/m2
23:25 5.6 °C 2.3 °C 1006 hPa SSW 9.7 km/h 25.7 km/h 79 % 0 mm 0 W/m2
23:30 5.6 °C 2.3 °C 1006 hPa SW 11.3 km/h 25.7 km/h 79 % 0 mm 0 W/m2
23:35 5.7 °C 2.6 °C 1006 hPa SSW 14.5 km/h 25.7 km/h 80 % 0 mm 0 W/m2
23:45 5.8 °C 2.7 °C 1006 hPa SW 14.5 km/h 25.7 km/h 80 % 0 mm 0 W/m2
23:50 5.8 °C 2.6 °C 1006 hPa SSW 12.9 km/h 25.7 km/h 80 % 0 mm 0 W/m2
23:55 5.8 °C 2.8 °C 1005.6 hPa SW 12.9 km/h 25.7 km/h 81 % 0 mm 0 W/m2
Delerius-Weather
Compliments of Weather Underground - 2 mb

Data updates at regular intervals.